createdAt,value
2022-09-16T00:00:13.615Z,13.00
2022-09-16T00:02:43.091Z,12.90
2022-09-16T00:05:11.530Z,12.90
2022-09-16T00:07:39.688Z,12.90
2022-09-16T00:10:08.942Z,12.90
2022-09-16T00:12:37.370Z,12.90
2022-09-16T00:15:06.096Z,12.90
2022-09-16T00:17:34.744Z,12.90
2022-09-16T00:20:05.178Z,12.90
2022-09-16T00:22:33.625Z,13.00
2022-09-16T00:25:01.653Z,13.00
2022-09-16T00:27:29.753Z,13.00
2022-09-16T00:29:57.761Z,13.00
2022-09-16T00:32:25.765Z,13.00
2022-09-16T00:34:54.114Z,13.00
2022-09-16T00:37:23.532Z,13.00
2022-09-16T00:39:52.158Z,13.10
2022-09-16T00:42:20.569Z,13.00
2022-09-16T00:45:00.435Z,13.00
2022-09-16T00:47:32.825Z,13.00
2022-09-16T00:50:05.970Z,13.00
2022-09-16T00:52:35.918Z,13.00
2022-09-16T00:55:09.643Z,13.00
2022-09-16T00:57:39.246Z,13.00
2022-09-16T01:00:09.708Z,13.00
2022-09-16T01:02:37.820Z,13.10
2022-09-16T01:05:09.393Z,13.10
2022-09-16T01:07:43.294Z,13.10
2022-09-16T01:10:12.823Z,13.10
2022-09-16T01:12:42.470Z,13.10
2022-09-16T01:15:13.960Z,13.10
2022-09-16T01:17:54.556Z,13.10
2022-09-16T01:20:51.789Z,13.10
2022-09-16T01:23:52.167Z,13.10
2022-09-16T01:26:36.747Z,13.10
2022-09-16T01:29:34.323Z,13.00
2022-09-16T01:32:08.883Z,13.00
2022-09-16T01:34:46.143Z,13.00
2022-09-16T01:37:23.086Z,13.00
2022-09-16T01:39:58.464Z,13.00
2022-09-16T01:42:37.393Z,12.90
2022-09-16T01:53:20.790Z,12.90
2022-09-16T01:55:54.159Z,12.80
2022-09-16T01:58:28.828Z,12.80
2022-09-16T02:01:02.804Z,12.80
2022-09-16T02:03:35.330Z,12.80
2022-09-16T02:06:06.425Z,12.80
2022-09-16T02:08:38.959Z,12.80
2022-09-16T02:11:12.103Z,12.80
2022-09-16T02:14:20.613Z,12.70
2022-09-16T02:16:52.905Z,12.80
2022-09-16T02:19:24.338Z,12.70
2022-09-16T02:21:54.907Z,12.70
2022-09-16T02:24:25.414Z,12.70
2022-09-16T02:26:59.635Z,12.60
2022-09-16T02:29:31.791Z,12.60
2022-09-16T02:32:03.635Z,12.60
2022-09-16T02:34:37.146Z,12.50
2022-09-16T02:37:08.622Z,12.60
2022-09-16T02:39:40.056Z,12.60
2022-09-16T02:42:09.583Z,12.70
2022-09-16T02:44:37.968Z,12.60
2022-09-16T02:47:13.125Z,12.60
2022-09-16T02:49:46.723Z,12.60
2022-09-16T02:52:21.146Z,12.60
2022-09-16T02:54:54.145Z,12.60
2022-09-16T02:57:24.037Z,12.60
2022-09-16T02:59:52.910Z,12.60
2022-09-16T03:07:43.652Z,12.50
2022-09-16T03:10:12.745Z,12.40
2022-09-16T03:12:52.159Z,12.20
2022-09-16T03:15:40.317Z,12.10
2022-09-16T03:18:38.037Z,12.00
2022-09-16T03:21:15.026Z,11.90
2022-09-16T03:23:50.455Z,11.90
2022-09-16T03:26:26.554Z,11.90
2022-09-16T03:29:08.697Z,11.90
2022-09-16T03:31:45.466Z,12.00
2022-09-16T03:34:18.563Z,12.00
2022-09-16T03:36:50.676Z,12.10
2022-09-16T03:39:19.207Z,12.10
2022-09-16T03:41:47.281Z,12.20
2022-09-16T03:44:16.827Z,12.30
2022-09-16T03:46:45.097Z,12.20
2022-09-16T03:49:13.626Z,12.20
2022-09-16T03:51:41.657Z,12.20
2022-09-16T03:54:10.503Z,12.30
2022-09-16T03:56:38.629Z,12.20
2022-09-16T03:59:06.640Z,12.30
2022-09-16T04:01:36.101Z,12.20
2022-09-16T04:04:04.246Z,12.20
2022-09-16T04:06:32.340Z,12.20
2022-09-16T04:09:00.895Z,12.20
2022-09-16T04:11:29.792Z,12.20
2022-09-16T04:13:57.844Z,12.10
2022-09-16T04:16:26.562Z,12.10
2022-09-16T04:18:56.009Z,12.20
2022-09-16T04:21:24.331Z,12.10
2022-09-16T04:23:54.705Z,12.10
2022-09-16T04:26:22.769Z,12.10
2022-09-16T04:28:54.453Z,12.10
2022-09-16T04:31:22.957Z,12.10
2022-09-16T04:33:51.243Z,12.10
2022-09-16T04:36:21.589Z,12.10
2022-09-16T04:38:50.567Z,12.00
2022-09-16T04:41:20.571Z,12.00
2022-09-16T04:43:52.191Z,12.00
2022-09-16T04:46:20.544Z,12.00
2022-09-16T04:48:49.485Z,12.00
2022-09-16T04:51:19.487Z,12.10
2022-09-16T04:53:49.592Z,12.10
2022-09-16T04:56:19.615Z,12.10
2022-09-16T04:58:49.508Z,12.10
2022-09-16T05:01:19.033Z,12.10
2022-09-16T05:03:48.589Z,12.10
2022-09-16T05:06:20.847Z,12.10
2022-09-16T05:08:51.775Z,12.10
2022-09-16T05:11:22.333Z,12.00
2022-09-16T05:13:50.889Z,12.00
2022-09-16T05:16:20.877Z,12.00
2022-09-16T05:18:50.695Z,12.00
2022-09-16T05:21:21.282Z,12.00
2022-09-16T05:23:50.951Z,12.00
2022-09-16T05:26:20.360Z,12.00
2022-09-16T05:28:50.914Z,12.00
2022-09-16T05:31:21.519Z,11.90
2022-09-16T05:33:55.854Z,11.80
2022-09-16T05:36:24.661Z,11.80
2022-09-16T05:39:21.055Z,11.80
2022-09-16T05:41:42.551Z,11.80
2022-09-16T05:44:10.886Z,11.90
2022-09-16T05:46:40.638Z,11.80
2022-09-16T05:49:09.175Z,11.90
2022-09-16T05:51:38.673Z,11.90
2022-09-16T05:54:08.554Z,11.80
2022-09-16T05:56:36.732Z,11.80
2022-09-16T05:59:05.046Z,12.80
2022-09-16T06:01:35.159Z,14.20
2022-09-16T06:04:08.004Z,15.20
2022-09-16T06:06:37.803Z,14.80
2022-09-16T06:09:09.811Z,14.40
2022-09-16T06:11:39.937Z,15.00
2022-09-16T06:14:09.232Z,16.40
2022-09-16T06:16:37.653Z,17.70
2022-09-16T06:19:10.483Z,17.70
2022-09-16T06:21:39.128Z,18.10
2022-09-16T06:24:09.243Z,18.90
2022-09-16T06:26:38.401Z,19.40
2022-09-16T06:29:06.897Z,19.90
2022-09-16T06:31:36.462Z,19.20
2022-09-16T06:34:05.410Z,18.00
2022-09-16T06:36:35.732Z,17.40
2022-09-16T06:39:04.170Z,17.10
2022-09-16T06:41:34.530Z,16.50
2022-09-16T06:44:03.130Z,16.00
2022-09-16T06:46:31.295Z,15.60
2022-09-16T06:49:04.559Z,15.10
2022-09-16T06:59:17.077Z,16.20
2022-09-16T07:01:45.300Z,18.00
2022-09-16T07:04:14.159Z,19.10
2022-09-16T07:07:08.296Z,20.10
2022-09-16T07:09:32.579Z,20.60
2022-09-16T07:12:01.496Z,20.70
2022-09-16T07:14:32.641Z,20.60
2022-09-16T07:17:01.225Z,20.90
2022-09-16T07:19:29.627Z,21.70
2022-09-16T07:21:58.245Z,21.80
2022-09-16T07:24:26.336Z,22.60
2022-09-16T07:26:54.384Z,22.70
2022-09-16T07:29:22.442Z,22.10
2022-09-16T07:31:51.861Z,22.20
2022-09-16T07:34:20.113Z,22.00
2022-09-16T07:36:49.945Z,22.50
2022-09-16T07:39:19.637Z,22.90
2022-09-16T07:41:49.109Z,23.00
2022-09-16T07:44:18.843Z,22.50
2022-09-16T07:46:48.128Z,21.60
2022-09-16T07:49:17.696Z,20.30
2022-09-16T07:51:45.772Z,20.50
2022-09-16T07:54:16.444Z,21.40
2022-09-16T07:56:45.456Z,22.30
2022-09-16T07:59:18.451Z,22.40
2022-09-16T08:01:47.396Z,22.90
2022-09-16T08:04:17.537Z,23.40
2022-09-16T08:06:45.837Z,23.20
2022-09-16T08:09:38.160Z,22.60
2022-09-16T08:12:05.354Z,21.90
2022-09-16T08:14:33.870Z,20.80
2022-09-16T08:17:03.455Z,21.10
2022-09-16T08:19:32.931Z,21.90
2022-09-16T08:22:00.979Z,22.30
2022-09-16T08:24:29.070Z,22.50
2022-09-16T08:29:30.117Z,22.90
2022-09-16T08:31:58.229Z,23.10
2022-09-16T08:34:26.324Z,23.30
2022-09-16T08:36:55.724Z,22.80
2022-09-16T08:39:23.747Z,22.10
2022-09-16T08:42:31.530Z,21.50
2022-09-16T08:45:19.183Z,21.40
2022-09-16T08:48:03.244Z,21.90
2022-09-16T08:50:36.753Z,22.50
2022-09-16T08:53:11.935Z,23.20
2022-09-16T08:55:46.692Z,23.50
2022-09-16T08:58:17.725Z,23.90
2022-09-16T09:00:50.157Z,23.40
2022-09-16T09:03:26.872Z,22.10
2022-09-16T09:05:56.864Z,21.50
2022-09-16T09:08:40.949Z,21.70
2022-09-16T09:11:14.367Z,21.30
2022-09-16T09:13:58.228Z,20.60
2022-09-16T09:16:38.157Z,19.60
2022-09-16T09:19:21.196Z,18.30
2022-09-16T09:21:57.344Z,18.50
2022-09-16T09:24:57.489Z,20.00
2022-09-16T09:27:29.422Z,19.80
2022-09-16T09:30:11.742Z,19.70
2022-09-16T09:33:17.565Z,19.90
2022-09-16T09:36:14.397Z,19.50
2022-09-16T09:39:13.790Z,19.40
2022-09-16T09:41:47.702Z,18.80
2022-09-16T09:44:34.979Z,18.90
2022-09-16T09:47:08.667Z,18.90
2022-09-16T09:49:42.177Z,19.60
2022-09-16T09:52:18.054Z,20.40
2022-09-16T09:54:51.042Z,20.50
2022-09-16T09:57:30.504Z,20.40
2022-09-16T10:00:07.216Z,20.70
2022-09-16T10:02:37.612Z,20.40
2022-09-16T10:05:07.591Z,20.20
2022-09-16T10:07:39.254Z,19.70
2022-09-16T10:10:20.565Z,18.60
2022-09-16T10:12:50.795Z,17.80
2022-09-16T10:15:23.614Z,17.60
2022-09-16T10:17:53.046Z,17.60
2022-09-16T10:20:29.354Z,17.70
2022-09-16T10:23:01.975Z,18.00
2022-09-16T10:25:32.262Z,18.10
2022-09-16T10:28:03.797Z,18.30
2022-09-16T10:30:34.387Z,18.70
2022-09-16T10:33:05.662Z,18.60
2022-09-16T10:35:36.935Z,18.50
2022-09-16T10:38:07.976Z,18.40
2022-09-16T10:40:37.563Z,18.30
2022-09-16T10:43:14.772Z,18.40
2022-09-16T10:45:49.072Z,18.50
2022-09-16T10:48:20.215Z,18.40
2022-09-16T10:50:55.907Z,18.30
2022-09-16T10:53:28.791Z,18.40
2022-09-16T10:56:01.638Z,18.10
2022-09-16T10:58:31.543Z,17.80
2022-09-16T11:01:12.330Z,17.90
2022-09-16T11:04:05.443Z,17.90
2022-09-16T11:06:53.008Z,17.90
2022-09-16T11:09:30.634Z,18.10
2022-09-16T11:12:18.885Z,18.30
2022-09-16T11:14:57.985Z,18.50
2022-09-16T11:17:41.810Z,18.60
2022-09-16T11:20:35.813Z,18.60
2022-09-16T11:23:13.685Z,18.60
2022-09-16T11:25:51.281Z,18.60
2022-09-16T11:28:51.690Z,17.80
2022-09-16T11:31:32.884Z,17.40
2022-09-16T11:34:08.357Z,17.30
2022-09-16T11:36:51.249Z,17.00
2022-09-16T11:39:38.276Z,16.80
2022-09-16T11:42:17.773Z,16.60
2022-09-16T11:44:50.143Z,16.80
2022-09-16T11:47:42.879Z,16.90
2022-09-16T11:50:27.940Z,17.10
2022-09-16T11:53:23.718Z,16.80
2022-09-16T11:55:58.168Z,16.90
2022-09-16T11:58:34.524Z,16.90
2022-09-16T12:01:14.267Z,17.00
2022-09-16T12:03:50.228Z,16.50
2022-09-16T12:06:22.241Z,16.50
2022-09-16T12:08:56.208Z,16.40
2022-09-16T12:11:32.931Z,16.50
2022-09-16T12:21:51.076Z,16.40
2022-09-16T12:24:28.930Z,16.30
2022-09-16T12:27:04.020Z,16.10
2022-09-16T12:29:39.787Z,16.20
2022-09-16T12:32:13.655Z,15.90
2022-09-16T12:34:49.651Z,15.90
2022-09-16T12:37:31.028Z,16.10
2022-09-16T12:39:59.168Z,16.30
2022-09-16T12:43:11.784Z,16.50
2022-09-16T12:45:59.608Z,16.70
2022-09-16T12:48:48.787Z,16.80
2022-09-16T12:51:34.613Z,16.50
2022-09-16T12:55:03.920Z,16.70
2022-09-16T12:57:45.814Z,16.80
2022-09-16T13:00:21.992Z,16.80
2022-09-16T13:02:54.177Z,16.80
2022-09-16T13:05:30.970Z,16.70
2022-09-16T13:08:05.179Z,16.40
2022-09-16T13:10:56.088Z,16.40
2022-09-16T13:13:33.139Z,16.60
2022-09-16T13:16:03.751Z,16.60
2022-09-16T13:18:44.095Z,16.70
2022-09-16T13:21:25.679Z,16.80
2022-09-16T13:24:02.799Z,16.90
2022-09-16T13:26:41.861Z,16.70
2022-09-16T13:29:32.345Z,16.70
2022-09-16T13:32:00.565Z,16.70
2022-09-16T13:34:28.820Z,16.80
2022-09-16T13:36:57.838Z,16.90
2022-09-16T13:39:31.101Z,17.10
2022-09-16T13:42:12.429Z,17.00
2022-09-16T13:44:44.151Z,17.10
2022-09-16T13:47:18.177Z,17.20
2022-09-16T13:49:51.647Z,17.20
2022-09-16T13:52:23.042Z,17.20
2022-09-16T13:55:09.998Z,16.90
2022-09-16T13:57:58.504Z,16.70
2022-09-16T14:00:33.732Z,16.40
2022-09-16T14:03:37.095Z,16.20
2022-09-16T14:06:33.771Z,16.10
2022-09-16T14:09:10.844Z,16.00
2022-09-16T14:11:47.628Z,16.00
2022-09-16T14:14:45.667Z,15.90
2022-09-16T14:17:18.660Z,15.80
2022-09-16T14:19:49.636Z,16.00
2022-09-16T14:22:19.707Z,16.20
2022-09-16T14:24:52.941Z,16.40
2022-09-16T14:27:30.423Z,16.50
2022-09-16T14:30:01.451Z,16.60
2022-09-16T14:32:31.882Z,16.60
2022-09-16T14:35:03.567Z,16.70
2022-09-16T14:37:33.278Z,16.70
2022-09-16T14:40:08.447Z,16.90
2022-09-16T14:42:37.582Z,16.80
2022-09-16T14:45:08.783Z,16.80
2022-09-16T14:47:51.125Z,16.60
2022-09-16T14:50:23.354Z,16.70
2022-09-16T14:52:56.731Z,16.60
2022-09-16T14:55:27.357Z,16.60
2022-09-16T14:57:55.595Z,16.60
2022-09-16T15:00:27.256Z,16.60
2022-09-16T15:02:59.089Z,16.60
2022-09-16T15:05:34.694Z,16.40
2022-09-16T15:08:14.156Z,16.30
2022-09-16T15:10:53.954Z,16.00
2022-09-16T15:13:25.536Z,15.90
2022-09-16T15:15:58.398Z,15.90
2022-09-16T15:18:29.645Z,15.90
2022-09-16T15:21:08.508Z,15.80
2022-09-16T15:23:39.743Z,15.90
2022-09-16T15:26:14.686Z,16.10
2022-09-16T15:28:54.899Z,16.50
2022-09-16T16:36:22.188Z,15.40
2022-09-16T16:38:50.247Z,15.30
2022-09-16T16:41:21.481Z,15.20
2022-09-16T16:43:49.920Z,15.10
2022-09-16T16:46:18.575Z,15.10
2022-09-16T16:48:47.189Z,15.20
2022-09-16T16:51:15.197Z,15.20
2022-09-16T16:53:49.432Z,15.10
2022-09-16T17:14:57.657Z,14.70
2022-09-16T17:17:30.647Z,14.40
2022-09-16T17:19:59.978Z,14.40
2022-09-16T17:22:28.008Z,14.40
2022-09-16T17:24:56.268Z,14.40
2022-09-16T17:27:26.979Z,14.40
2022-09-16T17:29:55.012Z,14.30
2022-09-16T17:32:24.519Z,14.30
2022-09-16T17:34:52.573Z,14.20
2022-09-16T17:37:20.759Z,14.20
2022-09-16T17:39:49.686Z,14.10
2022-09-16T17:42:17.853Z,14.10
2022-09-16T17:44:45.855Z,14.00
2022-09-16T17:47:13.955Z,14.00
2022-09-16T17:49:43.320Z,13.90
2022-09-16T17:52:11.317Z,13.90
2022-09-16T17:54:40.853Z,13.80
2022-09-16T17:57:08.911Z,13.80
2022-09-16T17:59:36.912Z,13.70
2022-09-16T18:02:04.952Z,13.60
2022-09-16T18:04:33.060Z,13.60
2022-09-16T18:07:02.651Z,13.50
2022-09-16T18:09:31.833Z,13.50
2022-09-16T18:11:59.894Z,13.40
2022-09-16T18:14:27.951Z,13.30
2022-09-16T18:16:56.237Z,13.30
2022-09-16T18:19:24.338Z,13.30
2022-09-16T18:21:52.857Z,13.30
2022-09-16T18:24:22.322Z,13.20
2022-09-16T18:26:50.435Z,13.20
2022-09-16T18:29:18.593Z,13.10
2022-09-16T18:31:49.161Z,13.00
2022-09-16T18:34:17.945Z,13.00
2022-09-16T18:36:46.001Z,12.90
2022-09-16T18:39:15.724Z,12.90
2022-09-16T18:41:46.420Z,12.80
2022-09-16T18:44:17.538Z,12.70
2022-09-16T18:46:45.579Z,12.70
2022-09-16T18:49:15.025Z,12.60
2022-09-16T18:51:50.462Z,12.50
2022-09-16T18:54:24.704Z,12.50
2022-09-16T18:56:55.892Z,12.40
2022-09-16T18:59:28.398Z,12.30
2022-09-16T19:01:59.281Z,12.30
2022-09-16T19:04:29.403Z,12.30
2022-09-16T19:07:05.706Z,12.20
2022-09-16T19:09:34.127Z,12.20
2022-09-16T19:12:04.207Z,12.20
2022-09-16T19:14:32.250Z,12.10
2022-09-16T19:17:00.324Z,12.10
2022-09-16T19:19:28.432Z,12.10
2022-09-16T19:21:56.618Z,12.10
2022-09-16T19:24:27.011Z,12.10
2022-09-16T19:26:56.903Z,12.00
2022-09-16T19:29:26.305Z,12.00
2022-09-16T19:31:54.848Z,12.00
2022-09-16T19:34:23.391Z,12.00
2022-09-16T19:36:51.687Z,12.00
2022-09-16T19:39:21.393Z,12.00
2022-09-16T19:41:49.575Z,12.00
2022-09-16T19:44:18.962Z,11.90
2022-09-16T19:46:49.504Z,12.00
2022-09-16T19:49:20.444Z,12.00
2022-09-16T19:51:49.443Z,12.10
2022-09-16T19:54:17.879Z,12.10
2022-09-16T19:56:50.361Z,12.20
2022-09-16T19:59:19.974Z,12.30
2022-09-16T20:01:49.788Z,12.40
2022-09-16T20:04:19.854Z,12.40
2022-09-16T20:06:48.609Z,12.50
2022-09-16T20:09:17.312Z,12.50
2022-09-16T20:11:47.001Z,12.50
2022-09-16T20:14:18.786Z,12.50
2022-09-16T20:16:47.415Z,12.50
2022-09-16T20:19:18.216Z,12.40
2022-09-16T20:21:46.454Z,12.40
2022-09-16T20:35:38.203Z,12.30
2022-09-16T20:38:06.243Z,12.30
2022-09-16T20:40:35.622Z,12.30
2022-09-16T20:43:03.696Z,12.30
2022-09-16T20:45:31.797Z,12.30
2022-09-16T20:47:59.847Z,12.30
2022-09-16T20:50:27.865Z,12.30
2022-09-16T20:52:57.451Z,12.20
2022-09-16T20:55:26.387Z,12.30
2022-09-16T20:57:54.477Z,12.30
2022-09-16T21:00:23.384Z,12.30
2022-09-16T21:02:53.898Z,12.30
2022-09-16T21:05:21.974Z,12.30
2022-09-16T21:07:50.026Z,12.20
2022-09-16T21:10:19.522Z,12.20
2022-09-16T21:12:48.712Z,12.20
2022-09-16T21:15:17.107Z,12.20
2022-09-16T21:17:45.114Z,12.10
2022-09-16T21:20:13.141Z,12.10
2022-09-16T21:22:41.701Z,12.10
2022-09-16T21:25:10.156Z,12.10
2022-09-16T21:27:39.557Z,12.20
2022-09-16T21:30:09.151Z,12.20
2022-09-16T21:32:37.157Z,12.20
2022-09-16T21:35:05.875Z,12.20
2022-09-16T21:37:33.933Z,12.20
2022-09-16T21:40:02.404Z,12.20
2022-09-16T21:42:31.131Z,12.20
2022-09-16T21:45:00.946Z,12.20
2022-09-16T21:47:28.995Z,12.20
2022-09-16T21:49:59.063Z,12.20
2022-09-16T21:52:27.179Z,12.30
2022-09-16T21:54:55.261Z,12.30
2022-09-16T21:57:23.322Z,12.30
2022-09-16T21:59:51.404Z,12.30
2022-09-16T22:02:20.993Z,12.30
2022-09-16T22:04:49.200Z,12.30
2022-09-16T22:07:17.202Z,12.30
2022-09-16T22:09:45.559Z,12.30
2022-09-16T22:12:13.836Z,12.30
2022-09-16T22:14:41.858Z,12.20
2022-09-16T22:17:09.910Z,12.10
2022-09-16T22:19:39.306Z,12.10
2022-09-16T22:22:07.332Z,12.10
2022-09-16T22:24:35.385Z,12.00
2022-09-16T22:27:03.466Z,12.00
2022-09-16T22:29:31.652Z,12.00
2022-09-16T22:31:59.685Z,11.90
2022-09-16T22:34:27.775Z,11.90
2022-09-16T22:36:57.157Z,11.90
2022-09-16T22:39:25.221Z,11.90
2022-09-16T22:41:53.209Z,11.80
2022-09-16T22:44:21.239Z,11.80
2022-09-16T22:46:49.382Z,11.90
2022-09-16T22:49:17.724Z,11.90
2022-09-16T22:51:46.088Z,11.90
2022-09-16T22:54:15.905Z,11.90
2022-09-16T22:56:44.910Z,11.80
2022-09-16T22:59:18.112Z,11.70
2022-09-16T23:01:46.409Z,11.60
2022-09-16T23:04:14.605Z,11.50
2022-09-16T23:06:43.282Z,11.50
2022-09-16T23:09:13.428Z,11.40
2022-09-16T23:11:43.073Z,11.40
2022-09-16T23:14:14.425Z,11.40
2022-09-16T23:16:42.436Z,11.40
2022-09-16T23:19:12.652Z,11.40
2022-09-16T23:21:41.688Z,11.30
2022-09-16T23:24:13.299Z,11.30
2022-09-16T23:26:43.020Z,11.20
2022-09-16T23:29:12.491Z,11.20
2022-09-16T23:31:43.900Z,11.20
2022-09-16T23:34:15.697Z,11.20
2022-09-16T23:36:44.153Z,11.10
2022-09-16T23:39:14.155Z,11.00
2022-09-16T23:41:44.309Z,11.00
2022-09-16T23:44:14.787Z,11.00
2022-09-16T23:46:43.208Z,10.90
2022-09-16T23:49:11.960Z,10.90
2022-09-16T23:51:40.185Z,10.90
2022-09-16T23:54:08.218Z,10.90
2022-09-16T23:56:36.233Z,10.90
2022-09-16T23:59:05.621Z,10.90
